Time;durP1;ratioP1;P1;durP2;ratioP2;P2;SDS_P1;SDS_P2;PMS_P1;PMS_P2;Temp;Humidity;BMP_temperature;BMP_pressure;BME280_temperature;BME280_humidity;BME280_pressure;Samples;Min_cycle;Max_cycle;Signal;HPM_P1;HPM_P2
2023/08/24 00:00:16;;;;;;;4.20;3.00;;;;;;;18.09;76.53;100420.27;84070;282;136639;-69
2023/08/24 00:02:18;;;;;;;6.90;4.20;;;;;;;18.02;77.86;100418.16;84175;282;24140;-68
2023/08/24 00:04:19;;;;;;;5.10;4.20;;;;;;;18.00;79.90;100420.23;84122;270;137705;-67
2023/08/24 00:06:21;;;;;;;7.00;4.70;;;;;;;18.05;78.92;100417.36;84171;281;25248;-68
2023/08/24 00:08:23;;;;;;;4.80;3.90;;;;;;;18.06;78.85;100420.35;84052;282;137018;-68
2023/08/24 00:10:25;;;;;;;4.60;3.50;;;;;;;18.08;79.56;100418.87;84136;282;22772;-68
2023/08/24 00:12:28;;;;;;;5.50;3.50;;;;;;;18.12;80.65;100421.50;83960;282;136954;-69
2023/08/24 00:14:30;;;;;;;5.90;4.00;;;;;;;18.17;78.99;100420.25;84140;282;25246;-69
2023/08/24 00:16:32;;;;;;;5.30;3.80;;;;;;;18.18;81.59;100422.91;84080;282;138188;-69
2023/08/24 00:18:34;;;;;;;4.40;4.00;;;;;;;18.33;80.04;100420.71;84306;282;25216;-71
2023/08/24 00:20:37;;;;;;;5.90;4.10;;;;;;;18.44;79.33;100418.73;84055;282;136974;-65
2023/08/24 00:22:39;;;;;;;4.90;3.20;;;;;;;18.50;78.13;100421.38;84289;282;27201;-68
2023/08/24 00:24:41;;;;;;;8.30;3.80;;;;;;;18.43;77.71;100421.95;84152;282;137007;-69
2023/08/24 00:26:42;;;;;;;5.90;4.50;;;;;;;18.28;77.99;100418.88;84304;281;24197;-72
2023/08/24 00:28:45;;;;;;;6.30;4.70;;;;;;;18.13;79.71;100418.29;84150;283;137495;-70
2023/08/24 00:30:47;;;;;;;4.50;4.10;;;;;;;18.02;80.82;100418.65;84219;283;25256;-68
2023/08/24 00:32:50;;;;;;;4.60;3.80;;;;;;;17.97;81.60;100414.05;84082;283;137488;-68
2023/08/24 00:34:52;;;;;;;4.40;4.00;;;;;;;17.93;80.89;100415.83;84551;282;25136;-70
2023/08/24 00:36:54;;;;;;;5.00;4.20;;;;;;;17.83;81.23;100414.15;84109;282;136748;-66
2023/08/24 00:38:56;;;;;;;3.80;3.40;;;;;;;17.76;81.58;100415.59;84369;283;24215;-68
2023/08/24 00:40:59;;;;;;;5.40;4.80;;;;;;;17.68;82.92;100416.11;84039;283;136521;-69
2023/08/24 00:43:00;;;;;;;4.10;3.30;;;;;;;17.66;84.12;100414.65;84149;278;22644;-67
2023/08/24 00:45:03;;;;;;;5.60;4.60;;;;;;;17.64;84.78;100414.45;84082;282;137064;-68
2023/08/24 00:47:06;;;;;;;5.70;3.60;;;;;;;17.70;84.95;100416.20;84062;282;22545;-68
2023/08/24 00:49:08;;;;;;;4.70;4.30;;;;;;;17.77;85.56;100418.08;84220;282;137195;-68
2023/08/24 00:51:10;;;;;;;4.30;3.70;;;;;;;17.90;85.49;100417.34;84123;282;24924;-68
2023/08/24 00:53:13;;;;;;;4.00;3.60;;;;;;;18.03;85.67;100418.66;83967;283;137008;-70
2023/08/24 00:55:16;;;;;;;7.60;4.30;;;;;;;18.19;84.58;100417.45;84370;282;22805;-69
2023/08/24 00:57:18;;;;;;;4.40;4.00;;;;;;;18.26;83.48;100413.60;84419;282;137100;-65
2023/08/24 00:59:21;;;;;;;5.00;4.20;;;;;;;18.27;84.58;100416.77;84207;282;24020;-63
2023/08/24 01:01:24;;;;;;;5.30;3.90;;;;;;;18.39;84.79;100412.52;83884;283;137883;-67
2023/08/24 01:03:26;;;;;;;5.20;4.10;;;;;;;18.51;83.31;100412.02;84230;271;25136;-65
2023/08/24 01:05:28;;;;;;;4.80;4.10;;;;;;;18.50;81.57;100410.76;83971;281;136995;-66
2023/08/24 01:07:31;;;;;;;6.00;4.20;;;;;;;18.34;82.52;100411.02;84035;284;22572;-70
2023/08/24 01:09:32;;;;;;;4.30;3.90;;;;;;;18.22;82.57;100407.33;84066;281;137138;-68
2023/08/24 01:11:54;;;;;;;6.00;3.70;;;;;;;18.09;83.12;100412.87;84213;282;22549;-65
2023/08/24 01:14:08;;;;;;;8.20;4.60;;;;;;;17.92;85.37;100410.16;84064;281;139046;-69
2023/08/24 01:16:27;;;;;;;5.10;3.80;;;;;;;17.89;86.00;100411.29;84131;282;138300;-66
2023/08/24 01:18:30;;;;;;;5.20;4.00;;;;;;;17.86;85.46;100407.82;84181;282;24894;-69
2023/08/24 01:20:36;;;;;;;5.80;4.50;;;;;;;17.71;85.22;100400.34;84091;282;137074;-65
2023/08/24 01:22:58;;;;;;;5.80;3.80;;;;;;;17.70;86.67;100410.70;84234;282;23683;-70
2023/08/24 01:25:07;;;;;;;6.30;4.00;;;;;;;17.73;86.94;100412.45;84278;282;137043;-66
2023/08/24 01:27:11;;;;;;;4.60;4.00;;;;;;;17.73;87.04;100410.13;84327;282;22546;-69
2023/08/24 01:29:13;;;;;;;4.30;3.90;;;;;;;17.69;86.33;100411.92;84123;282;137247;-65
2023/08/24 01:31:16;;;;;;;4.30;3.50;;;;;;;17.63;86.27;100413.30;84254;270;24306;-68
2023/08/24 01:33:18;;;;;;;4.40;4.00;;;;;;;17.53;86.63;100420.42;84453;283;138363;-66
2023/08/24 01:35:20;;;;;;;5.10;4.50;;;;;;;17.42;87.88;100417.11;84490;282;26219;-64
2023/08/24 01:37:22;;;;;;;4.40;3.90;;;;;;;17.36;88.92;100412.94;84478;282;137174;-66
2023/08/24 01:39:35;;;;;;;8.30;4.50;;;;;;;17.41;90.85;100416.64;84529;282;22565;-67
2023/08/24 01:41:39;;;;;;;6.00;4.30;;;;;;;17.50;89.78;100418.27;84401;281;136924;-64
2023/08/24 01:43:45;;;;;;;7.80;4.80;;;;;;;17.42;89.63;100403.80;84383;281;22564;-69
2023/08/24 01:45:48;;;;;;;5.50;4.70;;;;;;;17.51;90.84;100412.40;84312;254;137036;-68
2023/08/24 01:47:56;;;;;;;5.50;3.70;;;;;;;17.57;89.00;100414.05;84474;281;22572;-65
2023/08/24 01:49:57;;;;;;;6.50;4.40;;;;;;;17.54;88.67;100412.89;84221;282;138176;-64
2023/08/24 01:52:04;;;;;;;4.70;4.30;;;;;;;17.45;88.10;100416.40;84256;282;23119;-69
2023/08/24 01:54:06;;;;;;;4.90;3.70;;;;;;;17.33;88.43;100416.59;84516;281;24137;-68
2023/08/24 01:56:11;;;;;;;7.30;4.10;;;;;;;17.19;88.75;100415.19;84334;281;137417;-67
2023/08/24 01:58:13;;;;;;;4.60;4.10;;;;;;;17.06;89.34;100414.79;84315;283;24700;-68
2023/08/24 02:00:15;;;;;;;5.90;4.80;;;;;;;16.99;90.59;100413.40;84107;283;138649;-68
2023/08/24 02:02:20;;;;;;;4.30;3.80;;;;;;;16.98;90.97;100416.40;84391;281;22564;-70
2023/08/24 02:04:22;;;;;;;6.20;4.70;;;;;;;16.96;90.84;100417.55;84238;283;138435;-69
2023/08/24 02:06:24;;;;;;;4.70;4.20;;;;;;;16.93;91.08;100418.48;84296;282;22576;-69
2023/08/24 02:08:26;;;;;;;6.00;4.50;;;;;;;16.90;91.87;100419.48;84304;281;138227;-68
2023/08/24 02:10:28;;;;;;;4.90;4.40;;;;;;;16.96;94.47;100422.06;84233;283;22558;-69
2023/08/24 02:12:31;;;;;;;5.60;4.60;;;;;;;17.16;93.11;100427.49;84078;282;138000;-66
2023/08/24 02:14:33;;;;;;;6.00;4.40;;;;;;;17.23;91.06;100425.35;84231;283;22597;-67
2023/08/24 02:16:36;;;;;;;4.60;4.20;;;;;;;17.20;90.47;100426.98;84155;282;137219;-70
2023/08/24 02:18:40;;;;;;;4.80;4.20;;;;;;;17.12;90.81;100426.75;84641;282;22762;-71
2023/08/24 02:20:42;;;;;;;5.50;5.00;;;;;;;17.11;92.67;100426.27;84128;283;137190;-66
2023/08/24 02:22:44;;;;;;;5.70;4.40;;;;;;;17.17;91.82;100429.66;84248;282;22938;-67
2023/08/24 02:24:46;;;;;;;4.70;4.30;;;;;;;17.18;91.26;100425.64;84215;282;137191;-66
2023/08/24 02:26:48;;;;;;;6.30;3.90;;;;;;;17.15;91.39;100424.56;84351;282;22550;-67
2023/08/24 02:28:49;;;;;;;4.20;3.90;;;;;;;17.16;91.37;100423.10;84202;283;137644;-69
2023/08/24 02:30:51;;;;;;;5.30;4.80;;;;;;;17.17;90.98;100427.19;84215;282;24095;-65
2023/08/24 02:32:53;;;;;;;4.90;4.40;;;;;;;17.18;90.40;100424.02;84122;282;137386;-67
2023/08/24 02:34:55;;;;;;;5.60;4.50;;;;;;;17.13;90.04;100420.70;84206;283;25226;-68
2023/08/24 02:36:57;;;;;;;6.80;4.70;;;;;;;17.09;90.17;100420.30;84178;282;138240;-67
2023/08/24 02:39:00;;;;;;;4.70;4.30;;;;;;;17.05;90.26;100424.17;84243;271;25184;-68
2023/08/24 02:41:06;;;;;;;4.30;3.80;;;;;;;17.07;92.17;100422.93;84207;282;137189;-68
2023/08/24 02:43:08;;;;;;;5.60;4.50;;;;;;;17.15;92.22;100422.49;84341;282;23012;-67
2023/08/24 02:45:10;;;;;;;5.20;4.00;;;;;;;17.23;92.07;100423.24;84121;283;137197;-67
2023/08/24 02:47:14;;;;;;;5.00;4.10;;;;;;;17.35;92.55;100429.74;84317;283;22637;-69
2023/08/24 02:49:16;;;;;;;4.30;3.60;;;;;;;17.49;90.84;100431.39;84232;283;137484;-62
2023/08/24 02:51:23;;;;;;;6.50;3.90;;;;;;;17.53;89.63;100433.48;84265;282;22543;-64
2023/08/24 02:53:26;;;;;;;5.90;4.40;;;;;;;17.51;89.73;100428.20;84084;282;137285;-67
2023/08/24 02:55:32;;;;;;;4.40;4.10;;;;;;;17.42;89.24;100419.02;84302;282;24034;-65
2023/08/24 02:57:35;;;;;;;5.40;4.10;;;;;;;17.53;90.22;100434.02;83987;283;136850;-67
2023/08/24 02:59:38;;;;;;;17.10;5.10;;;;;;;17.55;90.66;100434.11;84447;282;22678;-66
2023/08/24 03:01:41;;;;;;;5.00;4.20;;;;;;;17.60;90.61;100433.90;84223;282;137927;-66
2023/08/24 03:03:43;;;;;;;7.00;4.40;;;;;;;17.61;89.61;100435.41;84279;282;25254;-70
2023/08/24 03:06:03;;;;;;;4.80;4.40;;;;;;;17.58;88.70;100435.92;84203;282;138563;-66
2023/08/24 03:08:05;;;;;;;7.60;4.50;;;;;;;17.49;88.50;100433.75;84288;282;137328;-70
2023/08/24 03:10:07;;;;;;;8.60;4.50;;;;;;;17.40;89.10;100431.92;84330;281;22794;-67
2023/08/24 03:12:12;;;;;;;;;;;;;;;17.41;91.08;100435.87;84165;271;137452;-67
2023/08/24 03:14:14;;;;;;;8.30;4.80;;;;;;;17.44;89.92;100432.92;84334;282;22560;-69
2023/08/24 03:16:16;;;;;;;6.10;4.60;;;;;;;17.38;89.19;100427.77;84125;281;138518;-71
2023/08/24 03:18:18;;;;;;;4.00;3.60;;;;;;;17.34;89.26;100427.95;84326;281;23795;-68
2023/08/24 03:20:20;;;;;;;5.00;4.60;;;;;;;17.35;90.64;100426.89;84188;282;136563;-69
2023/08/24 03:22:22;;;;;;;8.10;5.30;;;;;;;17.44;90.51;100425.70;84247;283;22552;-70
2023/08/24 03:24:24;;;;;;;5.80;5.20;;;;;;;17.56;89.98;100430.36;84177;281;137215;-69
2023/08/24 03:26:27;;;;;;;7.70;4.70;;;;;;;17.68;89.28;100426.13;84327;283;22556;-67
2023/08/24 03:28:29;;;;;;;7.00;4.30;;;;;;;17.79;88.59;100432.76;84250;282;137049;-70
2023/08/24 03:30:31;;;;;;;8.70;5.80;;;;;;;17.91;88.61;100435.97;84336;281;22578;-69
2023/08/24 03:32:34;;;;;;;7.40;5.20;;;;;;;18.11;87.38;100433.52;84097;283;136764;-68
2023/08/24 03:34:36;;;;;;;18.20;6.70;;;;;;;18.36;86.09;100432.70;84183;283;23729;-68
2023/08/24 03:36:38;;;;;;;10.40;6.00;;;;;;;18.64;85.18;100432.89;84059;283;136680;-66
2023/08/24 03:38:41;;;;;;;10.00;6.00;;;;;;;18.98;83.63;100430.60;84451;282;22704;-66
2023/08/24 03:40:43;;;;;;;11.90;6.10;;;;;;;19.34;81.76;100428.92;84246;281;136716;-68
2023/08/24 03:42:44;;;;;;;11.00;5.20;;;;;;;19.69;80.67;100430.38;84276;282;22663;-69
2023/08/24 03:44:46;;;;;;;10.60;5.20;;;;;;;20.13;78.84;100431.63;84169;283;136127;-68
2023/08/24 03:46:49;;;;;;;9.90;5.20;;;;;;;20.56;76.32;100434.90;84327;283;22935;-65
2023/08/24 03:48:51;;;;;;;8.40;4.30;;;;;;;20.99;74.85;100435.45;84264;253;136350;-67
2023/08/24 03:50:57;;;;;;;6.40;5.10;;;;;;;21.46;72.87;100439.92;84285;282;23705;-68
2023/08/24 03:52:59;;;;;;;7.40;4.70;;;;;;;21.97;69.77;100442.66;84226;283;136594;-67
2023/08/24 03:55:02;;;;;;;6.80;4.30;;;;;;;22.44;67.15;100446.52;84349;283;22566;-67
2023/08/24 03:57:03;;;;;;;11.00;4.90;;;;;;;22.87;64.90;100447.48;84127;283;136233;-68
2023/08/24 03:59:05;;;;;;;10.40;4.90;;;;;;;23.20;63.32;100450.75;84293;270;25181;-69
2023/08/24 04:01:11;;;;;;;12.40;5.20;;;;;;;23.46;62.45;100449.30;84062;282;137141;-67
2023/08/24 04:03:13;;;;;;;11.60;4.60;;;;;;;23.78;61.55;100443.38;84539;283;23716;-66
2023/08/24 04:05:16;;;;;;;6.60;4.20;;;;;;;24.11;59.73;100445.73;84097;283;138120;-68
2023/08/24 04:07:18;;;;;;;4.70;3.70;;;;;;;24.43;58.38;100443.56;83669;282;891996;-70
2023/08/24 04:09:22;;;;;;;6.20;3.80;;;;;;;24.69;57.25;100442.11;84106;282;138020;-71
2023/08/24 04:11:23;;;;;;;10.60;4.00;;;;;;;24.96;55.92;100441.92;84144;283;22561;-71
2023/08/24 04:13:26;;;;;;;11.30;4.50;;;;;;;25.22;55.00;100438.92;84091;282;137190;-71
2023/08/24 04:15:28;;;;;;;4.20;3.80;;;;;;;25.49;54.11;100441.96;84253;282;25144;-70
2023/08/24 04:17:30;;;;;;;5.80;3.40;;;;;;;25.71;53.11;100437.33;84122;282;137966;-69
2023/08/24 04:19:32;;;;;;;7.30;3.50;;;;;;;25.87;52.24;100419.41;84180;283;24131;-69
2023/08/24 04:21:35;;;;;;;8.50;4.60;;;;;;;26.07;51.52;100422.55;84162;283;136241;-67
2023/08/24 04:23:37;;;;;;;6.50;3.80;;;;;;;26.42;50.62;100439.39;84474;281;25221;-70
2023/08/24 04:25:40;;;;;;;9.60;4.80;;;;;;;26.72;49.58;100437.02;84106;282;136619;-71
2023/08/24 04:27:44;;;;;;;5.00;3.40;;;;;;;27.06;47.60;100438.07;84443;283;23761;-70
2023/08/24 04:29:48;;;;;;;;;;;;;;;27.31;46.09;100438.48;84133;282;137318;-70
2023/08/24 04:31:51;;;;;;;6.00;3.10;;;;;;;27.41;45.43;100437.17;84331;271;24129;-70
2023/08/24 04:33:53;;;;;;;4.90;4.40;;;;;;;27.48;45.45;100434.98;84098;282;136761;-70
2023/08/24 04:35:55;;;;;;;5.10;4.50;;;;;;;27.60;44.97;100425.91;84241;282;24142;-68
2023/08/24 04:37:57;;;;;;;5.10;4.40;;;;;;;27.85;44.69;100428.26;84090;283;136061;-72
2023/08/24 04:39:59;;;;;;;10.60;5.60;;;;;;;28.00;44.27;100428.11;84163;283;24073;-71
2023/08/24 04:42:02;;;;;;;6.40;5.90;;;;;;;28.20;43.77;100428.38;84050;257;136500;-71
2023/08/24 04:44:04;;;;;;;4.90;3.40;;;;;;;28.32;43.41;100424.76;84182;282;136847;-72
2023/08/24 04:46:06;;;;;;;4.80;2.00;;;;;;;28.41;43.05;100428.02;84263;282;23733;-70
2023/08/24 04:48:08;;;;;;;2.30;2.10;;;;;;;28.31;43.21;100426.73;84079;282;136612;-70
2023/08/24 04:50:10;;;;;;;1.20;1.10;;;;;;;28.14;43.39;100425.06;84200;282;22580;-71
2023/08/24 04:52:12;;;;;;;3.40;2.30;;;;;;;27.88;43.25;100413.44;84200;282;136523;-70
2023/08/24 04:54:14;;;;;;;5.00;2.90;;;;;;;27.83;43.69;100422.98;84214;283;24114;-69
2023/08/24 04:56:19;;;;;;;2.40;2.00;;;;;;;27.94;43.44;100420.02;84179;283;136353;-71
2023/08/24 04:58:21;;;;;;;3.10;2.70;;;;;;;28.20;43.29;100420.83;84473;282;23479;-71
2023/08/24 05:00:25;;;;;;;5.00;2.20;;;;;;;28.48;42.73;100420.91;84192;282;136495;-70
2023/08/24 05:02:27;;;;;;;6.20;2.40;;;;;;;28.67;42.53;100422.12;84242;282;25265;-71
2023/08/24 05:04:29;;;;;;;5.00;3.60;;;;;;;28.79;42.25;100423.61;84149;282;136563;-70
2023/08/24 05:06:31;;;;;;;5.40;2.00;;;;;;;28.95;42.06;100426.20;84262;282;22545;-72
2023/08/24 05:08:33;;;;;;;2.50;1.50;;;;;;;29.20;41.17;100424.89;84188;282;136420;-70
2023/08/24 05:10:36;;;;;;;4.20;1.60;;;;;;;29.38;40.21;100425.54;84258;282;23668;-69
2023/08/24 05:12:38;;;;;;;7.10;2.80;;;;;;;29.53;39.93;100426.91;84235;283;136588;-70
2023/08/24 05:14:40;;;;;;;5.40;3.70;;;;;;;29.65;39.34;100427.44;84126;282;22546;-71
2023/08/24 05:16:42;;;;;;;6.00;5.60;;;;;;;29.87;38.47;100431.82;84035;282;137815;-67
2023/08/24 05:18:44;;;;;;;4.40;3.30;;;;;;;30.10;37.39;100432.76;84103;282;24062;-70
2023/08/24 05:20:46;;;;;;;3.00;1.80;;;;;;;30.04;36.97;100420.05;83966;282;136459;-71
2023/08/24 05:22:48;;;;;;;2.80;2.50;;;;;;;29.92;36.71;100428.73;83953;283;22560;-69
2023/08/24 05:24:50;;;;;;;3.50;2.80;;;;;;;29.66;36.66;100429.06;84007;282;136396;-69
2023/08/24 05:26:52;;;;;;;4.30;3.90;;;;;;;29.36;36.98;100431.40;83997;283;22570;-70
2023/08/24 05:28:54;;;;;;;2.50;1.00;;;;;;;29.00;37.64;100428.58;83880;282;136202;-69
2023/08/24 05:30:56;;;;;;;3.70;2.70;;;;;;;28.85;38.52;100431.09;84062;282;23725;-69
2023/08/24 05:33:00;;;;;;;2.90;2.00;;;;;;;28.87;37.91;100428.04;84061;281;136085;-68
2023/08/24 05:35:02;;;;;;;2.00;1.60;;;;;;;28.81;37.80;100428.45;84405;282;22540;-73
2023/08/24 05:37:04;;;;;;;3.90;3.00;;;;;;;28.62;38.23;100427.45;84162;282;136465;-70
2023/08/24 05:39:06;;;;;;;6.10;5.50;;;;;;;28.51;38.33;100431.87;84201;282;22556;-68
2023/08/24 05:41:08;;;;;;;3.10;1.90;;;;;;;28.46;38.54;100429.39;84197;282;136315;-69
2023/08/24 05:43:10;;;;;;;4.00;3.50;;;;;;;28.35;38.56;100427.92;84225;282;22577;-71
2023/08/24 05:45:15;;;;;;;2.10;2.00;;;;;;;28.36;38.53;100431.29;84050;270;136407;-70
2023/08/24 05:47:16;;;;;;;5.20;4.80;;;;;;;28.43;38.28;100433.62;84117;282;24076;-71
2023/08/24 05:49:18;;;;;;;4.40;1.30;;;;;;;28.46;38.82;100428.39;84105;282;137772;-68
2023/08/24 05:51:20;;;;;;;3.10;2.80;;;;;;;28.59;38.08;100427.67;84261;282;22588;-73
2023/08/24 05:53:22;;;;;;;4.40;2.80;;;;;;;28.63;37.81;100422.36;84100;283;137327;-71
2023/08/24 05:55:24;;;;;;;3.40;2.40;;;;;;;28.66;37.67;100419.55;84203;283;23704;-72
2023/08/24 05:57:26;;;;;;;4.10;3.00;;;;;;;28.60;37.90;100419.30;84102;283;136378;-68
2023/08/24 05:59:27;;;;;;;3.70;3.00;;;;;;;28.64;37.44;100419.88;84219;283;22858;-69
2023/08/24 06:01:30;;;;;;;2.30;2.10;;;;;;;28.78;37.17;100415.35;84071;284;136675;-73
2023/08/24 06:03:34;;;;;;;1.30;1.20;;;;;;;28.94;36.53;100415.03;84321;283;22661;-72
2023/08/24 06:05:38;;;;;;;4.50;4.10;;;;;;;28.96;36.28;100412.31;84108;284;136216;-77
2023/08/24 06:07:40;;;;;;;5.40;0.30;;;;;;;28.92;36.15;100411.41;85706;282;22539;-80
2023/08/24 06:09:42;;;;;;;0.80;0.40;;;;;;;28.76;36.04;100407.81;85416;255;136034;-73
2023/08/24 06:11:44;;;;;;;0.80;0.20;;;;;;;28.63;36.31;100406.69;85316;283;22695;-77
2023/08/24 06:13:46;;;;;;;3.40;0.40;;;;;;;28.71;36.37;100410.23;85187;284;136860;-75
2023/08/24 06:15:48;;;;;;;0.40;0.30;;;;;;;28.84;35.66;100408.02;84964;282;22505;-76
2023/08/24 06:17:50;;;;;;;3.20;0.30;;;;;;;28.94;35.56;100412.73;84776;281;136370;-74
2023/08/24 06:19:53;;;;;;;4.40;0.20;;;;;;;28.98;35.40;100414.73;85448;282;25419;-79
2023/08/24 06:21:55;;;;;;;2.30;0.50;;;;;;;28.98;34.56;100410.52;84619;282;136036;-77
2023/08/24 06:23:57;;;;;;;3.60;0.20;;;;;;;28.88;34.71;100411.67;84463;282;25197;-80
2023/08/24 06:25:58;;;;;;;1.30;0.20;;;;;;;28.74;34.79;100411.16;84174;282;137518;-76
2023/08/24 06:28:03;;;;;;;1.30;0.30;;;;;;;28.55;34.97;100408.70;84291;282;23808;-79
2023/08/24 06:30:07;;;;;;;1.10;0.70;;;;;;;28.46;35.43;100411.85;84321;282;22585;-80
2023/08/24 06:32:08;;;;;;;1.50;0.20;;;;;;;28.48;35.75;100407.64;84088;283;136296;-75
2023/08/24 06:34:10;;;;;;;0.70;0.20;;;;;;;28.64;35.32;100406.05;84273;283;22552;-70
2023/08/24 06:36:12;;;;;;;3.70;1.60;;;;;;;28.66;34.89;100407.27;84115;282;137939;-78
2023/08/24 06:38:14;;;;;;;1.10;0.30;;;;;;;28.48;35.21;100408.42;84156;283;22549;-76
2023/08/24 06:40:17;;;;;;;4.00;0.10;;;;;;;28.30;35.75;100408.95;84195;282;136630;-75
2023/08/24 06:42:19;;;;;;;0.80;0.20;;;;;;;28.22;35.98;100411.58;84226;281;22751;-74
2023/08/24 06:44:21;;;;;;;0.80;0.20;;;;;;;28.30;36.57;100415.84;84124;283;136783;-73
2023/08/24 06:46:22;;;;;;;0.70;0.20;;;;;;;28.45;35.53;100415.38;84219;281;22659;-71
2023/08/24 06:48:24;;;;;;;0.90;0.10;;;;;;;28.49;35.63;100418.23;84191;281;136810;-71
2023/08/24 06:50:26;;;;;;;1.40;0.20;;;;;;;28.56;35.29;100420.11;84240;283;25271;-71
2023/08/24 06:52:28;;;;;;;0.20;0.20;;;;;;;28.61;34.96;100413.36;84109;282;137758;-70
2023/08/24 06:54:29;;;;;;;0.90;0.20;;;;;;;28.73;34.66;100425.11;84252;282;25184;-73
2023/08/24 06:56:31;;;;;;;0.30;0.10;;;;;;;28.72;34.57;100429.04;84034;282;136182;-71
2023/08/24 06:58:33;;;;;;;0.20;0.10;;;;;;;28.57;34.48;100431.75;84221;282;25152;-73
2023/08/24 07:00:35;;;;;;;1.10;0.10;;;;;;;28.42;34.75;100437.05;84143;282;136610;-72
2023/08/24 07:02:37;;;;;;;1.90;0.30;;;;;;;28.35;33.85;100436.08;84204;282;23474;-71
2023/08/24 07:04:40;;;;;;;0.40;0.20;;;;;;;28.28;34.77;100433.21;84128;283;137729;-68
2023/08/24 07:06:43;;;;;;;1.50;0.20;;;;;;;28.23;35.11;100432.71;84180;282;22553;-71
2023/08/24 07:08:45;;;;;;;0.30;0.10;;;;;;;28.20;34.49;100432.71;86783;282;136298;-72
2023/08/24 07:10:47;;;;;;;1.00;0.10;;;;;;;28.04;34.89;100431.70;86718;281;22282;-72
2023/08/24 07:12:49;;;;;;;0.90;0.20;;;;;;;27.86;35.25;100432.69;86740;256;136079;-70
2023/08/24 07:14:50;;;;;;;0.90;0.30;;;;;;;27.69;35.04;100428.88;86855;282;22367;-70
2023/08/24 07:16:52;;;;;;;0.20;0.10;;;;;;;27.45;34.99;100429.63;84615;282;136023;-72
2023/08/24 07:18:54;;;;;;;0.60;0.10;;;;;;;27.21;34.99;100432.88;84137;282;22657;-71
2023/08/24 07:20:55;;;;;;;0.10;0.00;;;;;;;26.98;35.04;100437.70;84001;282;136483;-71
2023/08/24 07:22:57;;;;;;;0.80;0.10;;;;;;;26.82;35.53;100442.14;84175;282;25136;-68
2023/08/24 07:25:00;;;;;;;0.30;0.10;;;;;;;26.66;35.70;100440.44;84071;283;136587;-72
2023/08/24 07:27:05;;;;;;;0.10;0.10;;;;;;;26.50;36.08;100435.69;84205;283;22563;-74
2023/08/24 07:29:08;;;;;;;2.00;0.10;;;;;;;26.36;36.70;100441.93;84147;282;136427;-69
2023/08/24 07:31:11;;;;;;;0.70;0.10;;;;;;;26.22;37.20;100445.27;84185;283;22547;-71
2023/08/24 07:33:13;;;;;;;0.50;0.10;;;;;;;26.11;36.96;100440.96;84056;282;136302;-71
2023/08/24 07:35:16;;;;;;;1.90;0.10;;;;;;;26.03;37.91;100439.95;84090;282;22825;-73
2023/08/24 07:37:18;;;;;;;1.30;0.20;;;;;;;25.89;38.22;100428.79;84049;281;136276;-73
2023/08/24 07:39:20;;;;;;;1.80;0.10;;;;;;;25.91;38.64;100440.17;84166;281;22580;-74
2023/08/24 07:41:22;;;;;;;3.20;0.10;;;;;;;25.84;38.58;100440.65;85638;281;137141;-69
2023/08/24 07:43:24;;;;;;;0.70;0.20;;;;;;;25.81;39.04;100444.67;84072;282;24276;-69
2023/08/24 07:45:26;;;;;;;1.30;0.40;;;;;;;25.79;39.44;100442.72;84833;282;135206;-73
2023/08/24 07:47:28;;;;;;;1.00;0.20;;;;;;;25.72;39.73;100440.17;84168;282;22558;-71
2023/08/24 07:49:30;;;;;;;1.20;0.40;;;;;;;25.65;39.60;100441.38;83923;282;136168;-73
2023/08/24 07:51:33;;;;;;;1.30;0.20;;;;;;;25.57;39.16;100440.31;84108;282;24669;-68
2023/08/24 07:53:35;;;;;;;3.00;0.30;;;;;;;25.55;38.37;100440.29;83985;282;136512;-69
2023/08/24 07:55:37;;;;;;;0.80;0.20;;;;;;;25.58;38.55;100437.94;84143;282;22559;-69
2023/08/24 07:57:39;;;;;;;0.50;0.20;;;;;;;25.61;37.62;100435.35;84060;282;136416;-71
2023/08/24 07:59:41;;;;;;;1.30;0.30;;;;;;;25.64;37.40;100437.73;84042;283;25170;-70
2023/08/24 08:01:43;;;;;;;1.20;0.10;;;;;;;25.66;37.03;100438.38;84017;282;136457;-72
2023/08/24 08:03:46;;;;;;;0.50;0.10;;;;;;;25.69;37.04;100435.17;84213;283;25249;-66
2023/08/24 08:05:48;;;;;;;2.10;0.50;;;;;;;25.76;37.29;100435.23;83989;283;136128;-68
2023/08/24 08:10:26;;;;;;;4.40;0.30;;;;;;;25.70;38.43;100427.90;82686;306;546009;-71
2023/08/24 08:12:31;;;;;;;0.90;0.40;;;;;;;25.68;38.33;100430.88;83433;293;135861;-69
2023/08/24 08:14:34;;;;;;;2.30;0.30;;;;;;;25.58;38.05;100430.97;83937;289;22855;-71
2023/08/24 08:16:36;;;;;;;2.20;0.20;;;;;;;25.42;38.46;100427.33;83702;288;135732;-70
2023/08/24 08:18:39;;;;;;;1.60;0.30;;;;;;;25.35;39.14;100424.27;83855;288;26069;-70
2023/08/24 08:20:41;;;;;;;2.80;0.40;;;;;;;25.34;39.01;100425.33;83691;288;137169;-69
2023/08/24 08:22:42;;;;;;;1.20;0.20;;;;;;;25.32;39.16;100420.70;83758;289;22691;-73
2023/08/24 08:24:44;;;;;;;2.60;0.40;;;;;;;25.33;39.33;100423.58;83162;287;783940;-70
2023/08/24 08:26:46;;;;;;;2.20;0.30;;;;;;;25.36;39.14;100418.20;83813;289;22618;-69
2023/08/24 08:28:48;;;;;;;2.90;0.60;;;;;;;25.44;39.23;100421.96;83798;284;135904;-66
2023/08/24 08:30:49;;;;;;;1.90;0.40;;;;;;;25.49;39.12;100422.20;83754;288;22631;-72
2023/08/24 08:32:52;;;;;;;6.20;0.30;;;;;;;25.52;38.60;100427.41;86479;288;136810;-73
2023/08/24 08:34:56;;;;;;;0.70;0.20;;;;;;;25.50;38.63;100418.59;84197;288;22645;-70
2023/08/24 08:36:58;;;;;;;1.00;0.30;;;;;;;25.52;37.87;100420.20;84024;287;136099;-69
2023/08/24 08:39:00;;;;;;;1.00;0.30;;;;;;;25.53;37.86;100418.55;84004;288;22587;-69
2023/08/24 08:41:04;;;;;;;3.60;0.50;;;;;;;25.60;37.99;100418.88;83843;288;135824;-65
2023/08/24 08:43:06;;;;;;;3.00;0.40;;;;;;;25.61;37.95;100411.93;84015;288;23794;-66
2023/08/24 08:45:10;;;;;;;1.30;0.20;;;;;;;25.62;38.12;100414.72;84008;287;135972;-69
2023/08/24 08:47:13;;;;;;;0.30;0.20;;;;;;;25.56;38.10;100419.80;83937;287;22575;-70
2023/08/24 08:49:17;;;;;;;0.60;0.10;;;;;;;25.50;38.33;100413.35;83833;288;137082;-69
2023/08/24 08:51:19;;;;;;;6.80;0.20;;;;;;;25.50;38.76;100411.93;83815;289;24105;-71
2023/08/24 08:53:23;;;;;;;2.10;0.40;;;;;;;25.56;38.48;100412.81;83730;287;136056;-71
2023/08/24 08:55:25;;;;;;;0.30;0.20;;;;;;;25.61;37.80;100413.58;85242;288;22553;-70
2023/08/24 08:57:27;;;;;;;0.40;0.20;;;;;;;25.61;37.63;100408.49;83885;287;135897;-74
2023/08/24 08:59:33;;;;;;;2.60;0.30;;;;;;;25.60;37.50;100405.08;83951;287;26235;-70
2023/08/24 09:01:37;;;;;;;0.10;0.10;;;;;;;25.59;37.53;100406.33;85038;287;136700;-69
2023/08/24 09:03:40;;;;;;;2.60;0.20;;;;;;;25.60;37.34;100407.57;83998;287;22563;-67
2023/08/24 09:05:42;;;;;;;0.70;0.30;;;;;;;25.63;37.45;100400.78;83741;287;136598;-69
2023/08/24 09:07:44;;;;;;;2.10;0.40;;;;;;;25.66;37.65;100398.67;83909;287;22647;-68
2023/08/24 09:09:46;;;;;;;0.30;0.20;;;;;;;25.77;37.80;100401.78;83852;287;137534;-70
2023/08/24 09:11:48;;;;;;;0.70;0.20;;;;;;;25.78;37.46;100386.23;83780;289;25212;-69
2023/08/24 09:13:50;;;;;;;1.80;0.10;;;;;;;25.97;36.36;100400.20;83997;287;137515;-68
2023/08/24 09:15:53;;;;;;;0.70;0.30;;;;;;;26.04;36.45;100403.73;83995;287;24254;-71
2023/08/24 09:17:56;;;;;;;1.30;0.20;;;;;;;26.06;36.35;100394.19;83972;269;135925;-70
2023/08/24 09:19:59;;;;;;;2.30;0.40;;;;;;;26.13;36.38;100396.84;84088;287;22570;-70
2023/08/24 09:22:02;;;;;;;0.80;0.30;;;;;;;26.11;36.28;100392.55;83931;288;135719;-70
2023/08/24 09:24:07;;;;;;;1.40;0.20;;;;;;;26.16;36.46;100387.69;83705;288;136281;-69
2023/08/24 09:26:09;;;;;;;2.20;0.20;;;;;;;26.16;36.31;100376.87;84347;286;23475;-69
2023/08/24 09:28:27;;;;;;;1.80;0.30;;;;;;;26.23;36.53;100380.12;84041;290;22433;31
2023/08/24 09:30:31;;;;;;;2.80;0.30;;;;;;;26.19;35.75;100380.11;83190;293;23830;-72
2023/08/24 09:32:33;;;;;;;1.40;0.50;;;;;;;26.10;36.14;100369.67;86180;290;135569;-75
2023/08/24 09:34:36;;;;;;;0.80;0.20;;;;;;;26.20;36.43;100382.45;86289;290;24134;-70
2023/08/24 09:36:39;;;;;;;0.30;0.20;;;;;;;26.29;36.13;100384.86;86272;291;136425;-72